LEVC Airport Information

Runway Information
Runway 04 Length 5394 ft width 148 ft
Elevation 205 ft Threshold ft Heading 38
Runway 22 Length 5394 ft Width 148 ft
Elevation 188 ft Threshold ft Heading 218
Runway 12 Length 8858 ft width 148 ft
Elevation 225 ft Threshold ft Heading 116
Runway 30 Length 8858 ft Width 148 ft
Elevation 172 ft Threshold ft Heading 296
Airport Frequencies
Type APP Name APP Frequency 120.1 MHZ
Type ATIS Name ATIS Frequency 121.075 MHZ
Type GND Name GND Frequency 121.7 MHZ
Type TWR Name TWR Frequency 118.55 MHZ
Airport Navaids
Type NDB Name Valencia Frequency 400 KHZ
Type NDB Name Valencia Frequency 340 KHZ
Type NDB Name Sagunto Frequency 356 KHZ
Type VOR-DME Name Valencia Frequency 116100 KHZ
Airport Weather Information & NOTAM
ADDS - METARS form results

(0218 UTC 12 January 2023)
Data provider http://aviationweather.gov/metar/data/
 
METAR text: LEVC 120200Z 30005KT CAVOK 07/04 Q1029 NOSIG
Conditions at: LEVC (VALENCIA (CIV/MI, ES) observed 0200 UTC 12 January 2023
Temperature: 7.0°C (45°F)
Dewpoint: 4.0°C (39°F) [RH = 81%]
Pressure (altimeter): 30.38 inches Hg (1029.0 mb)
Winds: from the WNW (300 degrees) at 6 MPH (5 knots; 2.6 m/s)
Visibility: 6 or more miles (10+ km)
Ceiling: ceiling and visibility are OK
Clouds: unknown
Weather: no significant weather observed at this time

METAR text: LEVC 120130Z 26004KT CAVOK 08/05 Q1029 NOSIG
Conditions at: LEVC (VALENCIA (CIV/MI, ES) observed 0130 UTC 12 January 2023
Temperature: 8.0°C (46°F)
Dewpoint: 5.0°C (41°F) [RH = 81%]
Pressure (altimeter): 30.38 inches Hg (1029.0 mb)
Winds: from the W (260 degrees) at 5 MPH (4 knots; 2.1 m/s)
Visibility: 6 or more miles (10+ km)
Ceiling: ceiling and visibility are OK
Clouds: unknown
Weather: no significant weather observed at this time

Forecast for: LEVC (VALENCIA (CIV/MI, ES)
Text: TAF LEVC 112300Z 1200/1224 VRB04KT 9999 FEW050 TX19/1212Z TN05/1206Z
Forecast period: 0000 to 0800 UTC 12 January 2023
Forecast type: FROM: standard forecast or significant change
Winds: variable direction winds at 5 MPH (4 knots; 2.1 m/s)
Visibility: 6 or more miles (10+ km)
Ceiling: at least 12,000 feet AGL
Clouds: few clouds at 5000 feet AGL
Weather: no significant weather forecast for this period
Text: TEMPO 1200/1202 32010KT
Forecast period: 0000 to 0200 UTC 12 January 2023
Forecast type: TEMPORARY: The following changes expected for less than half the time period
Winds: from the NW (320 degrees) at 12 MPH (10 knots; 5.1 m/s)
Visibility: missing
Ceiling: unknown
Clouds: missing
Weather: no significant weather forecast for this period
Text: BECMG 1208/1210 23008KT
Forecast period: 0800 UTC 12 January 2023 to 0000 UTC 13 January 2023
Forecast type: BECOMING: Conditions expected to become as follows by 1000 UTC 12 January 2023
Winds: from the SW (230 degrees) at 9 MPH (8 knots; 4.1 m/s)
Visibility: 6 or more miles (10+ km)
Ceiling: at least 12,000 feet AGL
Clouds: few clouds at 5000 feet AGL
Weather: no significant weather forecast for this period